Time;durP1;ratioP1;P1;durP2;ratioP2;P2;SDS_P1;SDS_P2;PMS_P1;PMS_P2;Temp;Humidity;BMP_temperature;BMP_pressure;BME280_temperature;BME280_humidity;BME280_pressure;Samples;Min_cycle;Max_cycle;Signal;HPM_P1;HPM_P2
2023/02/06 00:02:35;;;;;;;1999.90;999.90;;;;;;;;;;4935997;29;20741;-73
2023/02/06 00:05:21;;;;;;;1999.90;999.90;;;;;;;;;;4936227;29;20190;-73
2023/02/06 00:08:07;;;;;;;1999.90;999.90;;;;;;;;;;4946147;29;20422;-72
2023/02/06 00:10:52;;;;;;;1999.90;999.90;;;;;;;;;;4948088;29;20706;-73
2023/02/06 00:13:37;;;;;;;1999.90;999.90;;;;;;;;;;4936129;29;20297;-74
2023/02/06 00:16:22;;;;;;;1999.90;999.90;;;;;;;;;;4939818;29;20229;-74
2023/02/06 00:19:07;;;;;;;1999.90;999.90;;;;;;;;;;4944165;29;20744;-73
2023/02/06 00:21:54;;;;;;;1999.90;999.90;;;;;;;;;;4954683;29;20213;-74
2023/02/06 00:24:40;;;;;;;1999.90;999.90;;;;;;;;;;4951129;29;20623;-75
2023/02/06 00:27:26;;;;;;;1999.90;999.90;;;;;;;;;;4951179;29;20412;-74
2023/02/06 00:30:12;;;;;;;1999.90;999.90;;;;;;;;;;4946283;28;20300;-75
2023/02/06 00:32:57;;;;;;;1999.90;999.90;;;;;;;;;;4954137;29;20224;-73
2023/02/06 00:35:42;;;;;;;1999.90;999.90;;;;;;;;;;4953754;29;20217;-73
2023/02/06 00:38:28;;;;;;;1999.90;999.90;;;;;;;;;;4953648;29;20236;-72
2023/02/06 00:41:13;;;;;;;1999.90;999.90;;;;;;;;;;4943373;29;20249;-74
2023/02/06 00:43:58;;;;;;;1999.90;999.90;;;;;;;;;;4943848;29;20213;-71
2023/02/06 00:46:43;;;;;;;1999.90;999.90;;;;;;;;;;4951011;29;20608;-72
2023/02/06 00:49:28;;;;;;;1999.90;999.90;;;;;;;;;;4936089;29;20206;-73
2023/02/06 00:52:13;;;;;;;1999.90;999.90;;;;;;;;;;4951127;29;20882;-72
2023/02/06 00:55:00;;;;;;;1999.90;999.90;;;;;;;;;;4939942;29;20209;-73
2023/02/06 00:57:45;;;;;;;1999.90;999.90;;;;;;;;;;4935775;29;20741;-75
2023/02/06 01:00:30;;;;;;;1999.90;999.90;;;;;;;;;;4949533;29;20349;-75
2023/02/06 01:03:15;;;;;;;1999.90;999.90;;;;;;;;;;4943368;29;20712;-74
2023/02/06 01:06:00;;;;;;;1999.90;999.90;;;;;;;;;;4948372;29;20217;-75
2023/02/06 01:08:45;;;;;;;1999.90;999.90;;;;;;;;;;4947390;29;20213;-72
2023/02/06 01:11:31;;;;;;;1999.90;999.90;;;;;;;;;;4951245;29;20581;-73
2023/02/06 01:14:16;;;;;;;1999.90;999.90;;;;;;;;;;4949273;29;20208;-75
2023/02/06 01:17:01;;;;;;;1999.90;999.90;;;;;;;;;;4946210;29;20609;-75
2023/02/06 01:19:46;;;;;;;1999.90;999.90;;;;;;;;;;4943063;29;20210;-75
2023/02/06 01:22:33;;;;;;;1999.90;999.90;;;;;;;;;;4935084;29;20230;-73
2023/02/06 01:25:18;;;;;;;1999.90;999.90;;;;;;;;;;4946177;29;20197;-71
2023/02/06 01:28:04;;;;;;;1999.90;999.90;;;;;;;;;;4952706;29;20339;-72
2023/02/06 01:30:49;;;;;;;1999.90;999.90;;;;;;;;;;4935126;29;20709;-74
2023/02/06 01:33:34;;;;;;;1999.90;999.90;;;;;;;;;;4942591;29;20394;-71
2023/02/06 01:36:20;;;;;;;1999.90;999.90;;;;;;;;;;4938884;29;20217;-70
2023/02/06 01:39:06;;;;;;;1999.90;999.90;;;;;;;;;;4939887;29;20585;-71
2023/02/06 01:41:51;;;;;;;1999.90;999.90;;;;;;;;;;4938248;29;20204;-73
2023/02/06 01:44:38;;;;;;;1999.90;999.90;;;;;;;;;;4946416;29;20209;-74
2023/02/06 01:47:23;;;;;;;1999.90;999.90;;;;;;;;;;4951581;29;20231;-73
2023/02/06 01:50:08;;;;;;;1999.90;999.90;;;;;;;;;;4940162;29;20621;-75
2023/02/06 01:52:53;;;;;;;1999.90;999.90;;;;;;;;;;4935041;29;20693;-75
2023/02/06 01:55:39;;;;;;;1999.90;999.90;;;;;;;;;;4949931;29;20224;-75
2023/02/06 01:58:26;;;;;;;1999.90;999.90;;;;;;;;;;4952704;29;20232;-74
2023/02/06 02:01:12;;;;;;;1999.90;999.90;;;;;;;;;;4949860;29;20281;-75
2023/02/06 02:04:01;;;;;;;1999.90;999.90;;;;;;;;;;4934398;29;20765;-75
2023/02/06 02:06:50;;;;;;;1999.90;999.90;;;;;;;;;;4934910;29;20233;-75
2023/02/06 02:09:35;;;;;;;1999.90;999.90;;;;;;;;;;4934859;29;20216;-75
2023/02/06 02:12:20;;;;;;;1999.90;999.90;;;;;;;;;;4934142;29;20983;-74
2023/02/06 02:15:05;;;;;;;1999.90;999.90;;;;;;;;;;4945689;29;20221;-75
2023/02/06 02:17:56;;;;;;;1999.90;999.90;;;;;;;;;;4949713;29;20229;-75
2023/02/06 02:20:51;;;;;;;1999.90;999.90;;;;;;;;;;4952008;29;20309;-75
2023/02/06 02:23:38;;;;;;;1999.90;999.90;;;;;;;;;;4952161;29;20213;-76
2023/02/06 02:26:36;;;;;;;1999.90;999.90;;;;;;;;;;4952368;29;20589;-75
2023/02/06 02:29:39;;;;;;;1999.90;999.90;;;;;;;;;;4934764;29;20201;-75
2023/02/06 02:32:39;;;;;;;1999.90;999.90;;;;;;;;;;4950410;29;20200;-76
2023/02/06 02:35:29;;;;;;;1999.90;999.90;;;;;;;;;;4952192;29;20209;-76
2023/02/06 02:38:20;;;;;;;1999.90;999.90;;;;;;;;;;4934416;29;20217;-76
2023/02/06 02:41:09;;;;;;;1999.90;999.90;;;;;;;;;;4949493;29;20328;-77
2023/02/06 02:43:57;;;;;;;1999.90;999.90;;;;;;;;;;4942639;29;20213;-75
2023/02/06 02:46:44;;;;;;;1999.90;999.90;;;;;;;;;;4934203;29;20236;-76
2023/02/06 02:49:31;;;;;;;1999.90;999.90;;;;;;;;;;4934343;29;20234;-76
2023/02/06 02:52:18;;;;;;;1999.90;999.90;;;;;;;;;;4934611;29;20709;-76
2023/02/06 02:55:13;;;;;;;1999.90;999.90;;;;;;;;;;4952041;29;20579;-76
2023/02/06 02:58:01;;;;;;;1999.90;999.90;;;;;;;;;;4956171;29;20611;-75
2023/02/06 03:00:49;;;;;;;1999.90;999.90;;;;;;;;;;4955484;29;20616;-76
2023/02/06 03:03:34;;;;;;;1999.90;999.90;;;;;;;;;;4937186;29;20645;-76
2023/02/06 03:06:26;;;;;;;1999.90;999.90;;;;;;;;;;4952745;29;20204;-76
2023/02/06 03:09:16;;;;;;;1999.90;999.90;;;;;;;;;;4937512;29;20578;-76
2023/02/06 03:12:04;;;;;;;1999.90;999.90;;;;;;;;;;4940442;29;20609;-76
2023/02/06 03:14:51;;;;;;;1999.90;999.90;;;;;;;;;;4937065;29;20210;-76
2023/02/06 03:17:39;;;;;;;1999.90;999.90;;;;;;;;;;4936777;29;20233;-76
2023/02/06 03:20:24;;;;;;;1999.90;999.90;;;;;;;;;;4937498;29;20850;-75
2023/02/06 03:23:10;;;;;;;1999.90;999.90;;;;;;;;;;4951983;29;20753;-76
2023/02/06 03:25:59;;;;;;;1999.90;999.90;;;;;;;;;;4956099;29;20261;-75
2023/02/06 03:28:45;;;;;;;1999.90;999.90;;;;;;;;;;4956371;29;20217;-75
2023/02/06 03:31:32;;;;;;;1999.90;999.90;;;;;;;;;;4951734;29;20253;-75
2023/02/06 03:34:19;;;;;;;1999.90;999.90;;;;;;;;;;4936833;29;20257;-76
2023/02/06 03:37:04;;;;;;;1999.90;999.90;;;;;;;;;;4945979;29;20240;-75
2023/02/06 03:39:49;;;;;;;1999.90;999.90;;;;;;;;;;4956025;29;20340;-75
2023/02/06 03:42:38;;;;;;;1999.90;999.90;;;;;;;;;;4941412;29;20225;-75
2023/02/06 03:45:25;;;;;;;1999.90;999.90;;;;;;;;;;4936763;29;20220;-75
2023/02/06 03:48:12;;;;;;;1999.90;999.90;;;;;;;;;;4936313;29;20237;-75
2023/02/06 03:50:59;;;;;;;1999.90;999.90;;;;;;;;;;4936842;29;20586;-75
2023/02/06 03:53:46;;;;;;;1999.90;999.90;;;;;;;;;;4951984;29;20215;-75
2023/02/06 03:56:33;;;;;;;1999.90;999.90;;;;;;;;;;4937066;29;20245;-75
2023/02/06 03:59:19;;;;;;;1999.90;999.90;;;;;;;;;;4955589;29;20204;-75
2023/02/06 04:02:05;;;;;;;1999.90;999.90;;;;;;;;;;4949487;29;20221;-76
2023/02/06 04:04:50;;;;;;;1999.90;999.90;;;;;;;;;;4954638;28;20313;-76
2023/02/06 04:07:35;;;;;;;1999.90;999.90;;;;;;;;;;4951817;29;20233;-76
2023/02/06 04:10:20;;;;;;;1999.90;999.90;;;;;;;;;;4936168;29;20702;-75
2023/02/06 04:13:05;;;;;;;1999.90;999.90;;;;;;;;;;4936874;29;20228;-76
2023/02/06 04:15:51;;;;;;;1999.90;999.90;;;;;;;;;;4936269;29;20218;-76
2023/02/06 04:18:36;;;;;;;1999.90;999.90;;;;;;;;;;4936340;29;20245;-76
2023/02/06 04:21:21;;;;;;;1999.90;999.90;;;;;;;;;;4935481;29;20418;-75
2023/02/06 04:24:06;;;;;;;1999.90;999.90;;;;;;;;;;4948971;29;20236;-75
2023/02/06 04:26:51;;;;;;;1999.90;999.90;;;;;;;;;;4955224;29;20353;-75
2023/02/06 04:29:36;;;;;;;1999.90;999.90;;;;;;;;;;4936133;29;20706;-76
2023/02/06 04:32:22;;;;;;;1999.90;999.90;;;;;;;;;;4935867;29;20205;-75
2023/02/06 04:35:07;;;;;;;1999.90;999.90;;;;;;;;;;4935699;29;20226;-76
2023/02/06 04:37:53;;;;;;;1999.90;999.90;;;;;;;;;;4935626;29;20373;-76
2023/02/06 04:40:37;;;;;;;1999.90;999.90;;;;;;;;;;4947233;29;20677;-75
2023/02/06 04:43:22;;;;;;;1999.90;999.90;;;;;;;;;;4947563;29;20216;-75
2023/02/06 04:46:07;;;;;;;1999.90;999.90;;;;;;;;;;4954534;29;20216;-75
2023/02/06 04:48:54;;;;;;;1999.90;999.90;;;;;;;;;;4938889;29;20701;-76
2023/02/06 04:51:39;;;;;;;1999.90;999.90;;;;;;;;;;4935646;29;20217;-76
2023/02/06 04:54:23;;;;;;;1999.90;999.90;;;;;;;;;;4935315;29;20213;-74
2023/02/06 04:57:09;;;;;;;1999.90;999.90;;;;;;;;;;4935982;29;20599;-75
2023/02/06 04:59:54;;;;;;;1999.90;999.90;;;;;;;;;;4935524;29;20213;-77
2023/02/06 05:02:38;;;;;;;1999.90;999.90;;;;;;;;;;4935495;29;20220;-75
2023/02/06 05:05:25;;;;;;;1999.90;999.90;;;;;;;;;;4935263;29;20588;-75
2023/02/06 05:08:10;;;;;;;1999.90;999.90;;;;;;;;;;4938442;29;20228;-76
2023/02/06 05:10:55;;;;;;;1999.90;999.90;;;;;;;;;;4951178;29;20705;-75
2023/02/06 05:13:41;;;;;;;1999.90;999.90;;;;;;;;;;4937685;29;20362;-76
2023/02/06 05:16:26;;;;;;;1999.90;999.90;;;;;;;;;;4934887;29;20601;-75
2023/02/06 05:19:10;;;;;;;1999.90;999.90;;;;;;;;;;4938959;29;20790;-76
2023/02/06 05:21:56;;;;;;;1999.90;999.90;;;;;;;;;;4949635;29;20205;-75
2023/02/06 05:24:41;;;;;;;1999.90;999.90;;;;;;;;;;4934856;29;20341;-75
2023/02/06 05:27:26;;;;;;;1999.90;999.90;;;;;;;;;;4935164;29;20247;-76
2023/02/06 05:30:12;;;;;;;1999.90;999.90;;;;;;;;;;4935010;29;20213;-76
2023/02/06 05:32:57;;;;;;;1999.90;999.90;;;;;;;;;;4935005;29;20213;-77
2023/02/06 05:35:42;;;;;;;1999.90;999.90;;;;;;;;;;4936680;29;20213;-75
2023/02/06 05:38:29;;;;;;;1999.90;999.90;;;;;;;;;;4950630;29;20232;-75
2023/02/06 05:41:13;;;;;;;1999.90;999.90;;;;;;;;;;4951457;29;20213;-75
2023/02/06 05:43:59;;;;;;;1999.90;999.90;;;;;;;;;;4951375;29;20204;-73
2023/02/06 05:46:44;;;;;;;1999.90;999.90;;;;;;;;;;4945318;29;20229;-74
2023/02/06 05:49:29;;;;;;;1999.90;999.90;;;;;;;;;;4942467;29;20572;-70
2023/02/06 05:52:14;;;;;;;1999.90;999.90;;;;;;;;;;4934548;29;20209;-77
2023/02/06 05:55:01;;;;;;;1999.90;999.90;;;;;;;;;;4934981;29;20220;-69
2023/02/06 05:57:46;;;;;;;1999.90;999.90;;;;;;;;;;4944404;29;20247;-73
2023/02/06 06:00:31;;;;;;;1999.90;999.90;;;;;;;;;;4945878;29;20255;-72
2023/02/06 06:03:16;;;;;;;1999.90;999.90;;;;;;;;;;4934362;29;20694;-72
2023/02/06 06:06:01;;;;;;;1999.90;999.90;;;;;;;;;;4937159;29;20414;-72
2023/02/06 06:08:46;;;;;;;1999.90;999.90;;;;;;;;;;4934702;29;20201;-75
2023/02/06 06:11:33;;;;;;;1999.90;999.90;;;;;;;;;;4949088;29;20211;-74
2023/02/06 06:14:18;;;;;;;1999.90;999.90;;;;;;;;;;4940514;29;20216;-76
2023/02/06 06:17:03;;;;;;;1999.90;999.90;;;;;;;;;;4949672;29;20643;-76
2023/02/06 06:19:48;;;;;;;1999.90;999.90;;;;;;;;;;4938544;29;20308;-72
2023/02/06 06:22:33;;;;;;;1999.90;999.90;;;;;;;;;;4942505;29;20271;-70
2023/02/06 06:25:18;;;;;;;1999.90;999.90;;;;;;;;;;4952415;29;20276;-70
2023/02/06 06:28:04;;;;;;;1999.90;999.90;;;;;;;;;;4953051;28;20321;-73
2023/02/06 06:30:49;;;;;;;1999.90;999.90;;;;;;;;;;4937957;29;20217;-75
2023/02/06 06:33:34;;;;;;;1999.90;999.90;;;;;;;;;;4937927;29;20213;-75
2023/02/06 06:36:19;;;;;;;1999.90;999.90;;;;;;;;;;4938093;29;20694;-75
2023/02/06 06:39:04;;;;;;;1999.90;999.90;;;;;;;;;;4938170;29;20212;-75
2023/02/06 06:41:49;;;;;;;1999.90;999.90;;;;;;;;;;4937809;29;20220;-72
2023/02/06 06:44:36;;;;;;;1999.90;999.90;;;;;;;;;;4937571;29;20210;-70
2023/02/06 06:47:21;;;;;;;1999.90;999.90;;;;;;;;;;4943271;29;20301;-76
2023/02/06 06:50:06;;;;;;;1999.90;999.90;;;;;;;;;;4938644;29;20212;-76
2023/02/06 06:52:51;;;;;;;1999.90;999.90;;;;;;;;;;4939177;29;20583;-75
2023/02/06 06:55:36;;;;;;;1999.90;999.90;;;;;;;;;;4954683;29;20784;-75
2023/02/06 06:58:21;;;;;;;1999.90;999.90;;;;;;;;;;4937556;29;20233;-76
2023/02/06 07:01:07;;;;;;;1999.90;999.90;;;;;;;;;;4942560;29;20334;-75
2023/02/06 07:03:52;;;;;;;1999.90;999.90;;;;;;;;;;4941697;29;20208;-75
2023/02/06 07:06:37;;;;;;;1999.90;999.90;;;;;;;;;;4937512;29;20229;-75
2023/02/06 07:09:22;;;;;;;1999.90;999.90;;;;;;;;;;4945740;29;20205;-75
2023/02/06 07:12:08;;;;;;;1999.90;999.90;;;;;;;;;;4947484;29;20578;-75
2023/02/06 07:14:53;;;;;;;1999.90;999.90;;;;;;;;;;4937259;29;20213;-73
2023/02/06 07:17:39;;;;;;;1999.90;999.90;;;;;;;;;;4937367;29;20224;-75
2023/02/06 07:20:24;;;;;;;1999.90;999.90;;;;;;;;;;4938981;29;20709;-75
2023/02/06 07:23:09;;;;;;;1999.90;999.90;;;;;;;;;;4955448;29;20803;-76
2023/02/06 07:25:55;;;;;;;1999.90;999.90;;;;;;;;;;4954546;29;20205;-73
2023/02/06 07:28:41;;;;;;;1999.90;999.90;;;;;;;;;;4937401;29;20293;-75
2023/02/06 07:31:25;;;;;;;1999.90;999.90;;;;;;;;;;4937398;29;20586;-75
2023/02/06 07:34:12;;;;;;;1999.90;999.90;;;;;;;;;;4936842;29;20217;-75
2023/02/06 07:36:58;;;;;;;1999.90;999.90;;;;;;;;;;4952988;29;20224;-76
2023/02/06 07:39:43;;;;;;;1999.90;999.90;;;;;;;;;;4945450;28;20212;-75
2023/02/06 07:42:28;;;;;;;1999.90;999.90;;;;;;;;;;4937034;29;20209;-76
2023/02/06 07:45:13;;;;;;;1999.90;999.90;;;;;;;;;;4936752;29;20226;-75
2023/02/06 07:47:58;;;;;;;1999.90;999.90;;;;;;;;;;4952594;29;20922;-75
2023/02/06 07:50:44;;;;;;;1999.90;999.90;;;;;;;;;;4954586;29;20305;-75
2023/02/06 07:53:29;;;;;;;1999.90;999.90;;;;;;;;;;4954625;29;20272;-75
2023/02/06 07:56:17;;;;;;;1999.90;999.90;;;;;;;;;;4954690;29;20700;-75
2023/02/06 07:59:02;;;;;;;1999.90;999.90;;;;;;;;;;4954357;29;20333;-75
2023/02/06 08:01:47;;;;;;;1999.90;999.90;;;;;;;;;;4954810;29;20213;-75
2023/02/06 08:04:34;;;;;;;1999.90;999.90;;;;;;;;;;4950052;29;20216;-76
2023/02/06 08:07:20;;;;;;;1999.90;999.90;;;;;;;;;;4954620;29;20667;-75
2023/02/06 08:10:06;;;;;;;1999.90;999.90;;;;;;;;;;4950249;29;20205;-75
2023/02/06 08:12:51;;;;;;;1999.90;999.90;;;;;;;;;;4937808;29;20210;-73
2023/02/06 08:15:36;;;;;;;1999.90;999.90;;;;;;;;;;4936411;29;20300;-75
2023/02/06 08:18:21;;;;;;;1999.90;999.90;;;;;;;;;;4953795;29;20364;-75
2023/02/06 08:21:07;;;;;;;1999.90;999.90;;;;;;;;;;4954335;29;20209;-75
2023/02/06 08:23:58;;;;;;;1999.90;999.90;;;;;;;;;;4946624;29;20704;-74
2023/02/06 08:26:43;;;;;;;1999.90;999.90;;;;;;;;;;4954392;29;20898;-75
2023/02/06 08:29:28;;;;;;;1999.90;999.90;;;;;;;;;;4942591;29;20210;-73
2023/02/06 08:32:13;;;;;;;1999.90;999.90;;;;;;;;;;4940340;29;20209;-74
2023/02/06 08:34:58;;;;;;;1999.90;999.90;;;;;;;;;;4939481;29;20200;-72
2023/02/06 08:37:43;;;;;;;1999.90;999.90;;;;;;;;;;4940845;29;20224;-73
2023/02/06 08:40:29;;;;;;;1999.90;999.90;;;;;;;;;;4941721;29;20233;-74
2023/02/06 08:43:14;;;;;;;1999.90;999.90;;;;;;;;;;4942342;29;20207;-72
2023/02/06 08:45:59;;;;;;;1999.90;999.90;;;;;;;;;;4943129;29;20677;-72
2023/02/06 08:48:44;;;;;;;1999.90;999.90;;;;;;;;;;4946638;29;20232;-74
2023/02/06 08:51:29;;;;;;;1999.90;999.90;;;;;;;;;;4950758;28;20209;-72
2023/02/06 08:54:15;;;;;;;1999.90;999.90;;;;;;;;;;4935102;29;20213;-71
2023/02/06 08:57:02;;;;;;;1999.90;999.90;;;;;;;;;;4949761;29;20229;-72
2023/02/06 08:59:46;;;;;;;1999.90;999.90;;;;;;;;;;4934301;29;20205;-73
2023/02/06 09:02:31;;;;;;;1999.90;999.90;;;;;;;;;;4941611;29;20341;-73
2023/02/06 09:05:17;;;;;;;1999.90;999.90;;;;;;;;;;4937056;29;20774;-73
2023/02/06 09:08:02;;;;;;;1999.90;999.90;;;;;;;;;;4951153;29;20229;-73
2023/02/06 09:10:47;;;;;;;1999.90;999.90;;;;;;;;;;4935341;29;20351;-72
2023/02/06 09:13:33;;;;;;;1999.90;999.90;;;;;;;;;;4947681;29;20677;-71
2023/02/06 09:16:19;;;;;;;1999.90;999.90;;;;;;;;;;4944279;29;20209;-73
2023/02/06 09:19:05;;;;;;;1999.90;999.90;;;;;;;;;;4942746;29;20273;-72
2023/02/06 09:21:50;;;;;;;1999.90;999.90;;;;;;;;;;4944026;29;20225;-70
2023/02/06 09:24:35;;;;;;;1999.90;999.90;;;;;;;;;;4940532;29;20213;-70
2023/02/06 09:27:20;;;;;;;1999.90;999.90;;;;;;;;;;4940440;29;20408;-72
2023/02/06 09:30:06;;;;;;;1999.90;999.90;;;;;;;;;;4942437;29;20210;-71
2023/02/06 09:32:52;;;;;;;1999.90;999.90;;;;;;;;;;4944310;29;20208;-72
2023/02/06 09:35:37;;;;;;;1999.90;999.90;;;;;;;;;;4950818;29;20354;-72
2023/02/06 09:38:21;;;;;;;1999.90;999.90;;;;;;;;;;4939849;29;20282;-72
2023/02/06 09:41:12;;;;;;;1999.90;999.90;;;;;;;;;;4936182;29;20338;-72
2023/02/06 09:43:59;;;;;;;1999.90;999.90;;;;;;;;;;4943592;29;20770;-73
2023/02/06 09:46:48;;;;;;;1999.90;999.90;;;;;;;;;;4943201;29;20376;-72
2023/02/06 09:49:36;;;;;;;1999.90;999.90;;;;;;;;;;4944317;29;20713;-71
2023/02/06 09:52:28;;;;;;;1999.90;999.90;;;;;;;;;;4944221;29;20214;-72
2023/02/06 09:55:18;;;;;;;1999.90;999.90;;;;;;;;;;4937317;29;20215;-72
2023/02/06 09:58:06;;;;;;;1999.90;999.90;;;;;;;;;;4949648;29;20222;-72
2023/02/06 10:00:53;;;;;;;1999.90;999.90;;;;;;;;;;4938654;29;20206;-72
2023/02/06 10:03:49;;;;;;;1999.90;999.90;;;;;;;;;;4951007;28;20230;-72
2023/02/06 10:06:40;;;;;;;1999.90;999.90;;;;;;;;;;4937787;29;20216;-71
2023/02/06 10:09:27;;;;;;;1999.90;999.90;;;;;;;;;;4943600;29;20801;-73
2023/02/06 10:12:13;;;;;;;1999.90;999.90;;;;;;;;;;4954906;29;20584;-71
2023/02/06 10:15:00;;;;;;;1999.90;999.90;;;;;;;;;;4953310;29;20691;-73
2023/02/06 10:17:48;;;;;;;1999.90;999.90;;;;;;;;;;4942526;29;20310;-71
2023/02/06 10:20:37;;;;;;;1999.90;999.90;;;;;;;;;;4944207;29;20212;-70
2023/02/06 10:23:28;;;;;;;1999.90;999.90;;;;;;;;;;4952201;29;20212;-71
2023/02/06 10:26:16;;;;;;;1999.90;999.90;;;;;;;;;;4937375;29;21069;-72
2023/02/06 10:29:01;;;;;;;1999.90;999.90;;;;;;;;;;4944739;29;20253;-73
2023/02/06 10:31:53;;;;;;;1999.90;999.90;;;;;;;;;;4951885;29;20216;-73
2023/02/06 10:34:46;;;;;;;1999.90;999.90;;;;;;;;;;4953878;29;20521;-72
2023/02/06 10:37:38;;;;;;;1999.90;999.90;;;;;;;;;;4942721;29;20412;-73
2023/02/06 10:40:29;;;;;;;1999.90;999.90;;;;;;;;;;4945447;29;20221;-72
2023/02/06 10:43:18;;;;;;;1999.90;999.90;;;;;;;;;;4938547;29;20333;-72
2023/02/06 10:46:12;;;;;;;1999.90;999.90;;;;;;;;;;4948366;29;20212;-72
2023/02/06 10:48:59;;;;;;;1999.90;999.90;;;;;;;;;;4946372;29;20204;-71
2023/02/06 10:51:47;;;;;;;1999.90;999.90;;;;;;;;;;4936897;29;20598;-72
2023/02/06 10:54:38;;;;;;;1999.90;999.90;;;;;;;;;;4942445;29;20268;-71
2023/02/06 10:57:26;;;;;;;1999.90;999.90;;;;;;;;;;4953720;29;20301;-73
2023/02/06 11:00:15;;;;;;;1999.90;999.90;;;;;;;;;;4952767;29;20208;-72
2023/02/06 11:03:02;;;;;;;1999.90;999.90;;;;;;;;;;4947566;29;20576;-72
2023/02/06 11:05:47;;;;;;;1999.90;999.90;;;;;;;;;;4936503;29;20211;-73
2023/02/06 11:08:33;;;;;;;1999.90;999.90;;;;;;;;;;4936469;29;20236;-73
2023/02/06 11:11:21;;;;;;;1999.90;999.90;;;;;;;;;;4945463;29;20261;-72
2023/02/06 11:14:11;;;;;;;1999.90;999.90;;;;;;;;;;4951654;28;20567;-73
2023/02/06 11:16:57;;;;;;;1999.90;999.90;;;;;;;;;;4936213;29;21488;-72
2023/02/06 11:19:43;;;;;;;1999.90;999.90;;;;;;;;;;4935619;29;20351;-72
2023/02/06 11:22:29;;;;;;;1999.90;999.90;;;;;;;;;;4948856;29;20212;-72
2023/02/06 11:25:19;;;;;;;1999.90;999.90;;;;;;;;;;4938733;29;20212;-71
2023/02/06 11:28:11;;;;;;;1999.90;999.90;;;;;;;;;;4942781;29;20252;-71
2023/02/06 11:30:57;;;;;;;1999.90;999.90;;;;;;;;;;4943512;29;20712;-71
2023/02/06 11:33:47;;;;;;;1999.90;999.90;;;;;;;;;;4935630;29;20591;-71
2023/02/06 11:36:34;;;;;;;1999.90;999.90;;;;;;;;;;4950508;29;20217;-71
2023/02/06 11:39:23;;;;;;;1999.90;999.90;;;;;;;;;;4935860;29;20228;-71
2023/02/06 11:42:18;;;;;;;1999.90;999.90;;;;;;;;;;4949980;29;20285;-72
2023/02/06 11:45:17;;;;;;;1999.90;999.90;;;;;;;;;;4936035;29;20201;-72
2023/02/06 11:48:03;;;;;;;1999.90;999.90;;;;;;;;;;4937998;29;20601;-71
2023/02/06 11:50:53;;;;;;;1999.90;999.90;;;;;;;;;;4935686;29;20577;-72
2023/02/06 11:53:38;;;;;;;1999.90;999.90;;;;;;;;;;4935466;29;20216;-72
2023/02/06 11:56:23;;;;;;;1999.90;999.90;;;;;;;;;;4941880;29;20587;-72
2023/02/06 11:59:16;;;;;;;1999.90;999.90;;;;;;;;;;4948966;29;20603;-70
2023/02/06 12:02:05;;;;;;;1999.90;999.90;;;;;;;;;;4935630;29;20270;-72
2023/02/06 12:04:51;;;;;;;1999.90;999.90;;;;;;;;;;4950293;29;20200;-72
2023/02/06 12:07:37;;;;;;;1999.90;999.90;;;;;;;;;;4940944;29;20225;-72
2023/02/06 12:10:24;;;;;;;1999.90;999.90;;;;;;;;;;4941300;29;20210;-72
2023/02/06 12:13:15;;;;;;;1999.90;999.90;;;;;;;;;;4935299;29;20217;-71
2023/02/06 12:16:01;;;;;;;1999.90;999.90;;;;;;;;;;4942719;29;20336;-72
2023/02/06 12:18:49;;;;;;;1999.90;999.90;;;;;;;;;;4935739;29;21640;-71
2023/02/06 12:21:40;;;;;;;1999.90;999.90;;;;;;;;;;4935005;29;20803;-73
2023/02/06 12:24:27;;;;;;;1999.90;999.90;;;;;;;;;;4944978;29;20622;-72
2023/02/06 12:27:15;;;;;;;1999.90;999.90;;;;;;;;;;4949178;28;20446;-72
2023/02/06 12:30:02;;;;;;;1999.90;999.90;;;;;;;;;;4940825;29;20722;-71
2023/02/06 12:32:50;;;;;;;1999.90;999.90;;;;;;;;;;4945314;29;20783;-72
2023/02/06 12:35:42;;;;;;;1999.90;999.90;;;;;;;;;;4934484;29;20769;-72
2023/02/06 12:38:42;;;;;;;1999.90;999.90;;;;;;;;;;4936215;29;20776;-72
2023/02/06 12:41:41;;;;;;;1999.90;999.90;;;;;;;;;;4933574;29;20418;-73
2023/02/06 12:44:30;;;;;;;1999.90;999.90;;;;;;;;;;4940343;29;20209;-72
2023/02/06 12:47:19;;;;;;;1999.90;999.90;;;;;;;;;;4948650;29;20363;-72
2023/02/06 12:50:09;;;;;;;1999.90;999.90;;;;;;;;;;4944422;29;20214;-73
2023/02/06 12:52:58;;;;;;;1999.90;999.90;;;;;;;;;;4934270;29;20210;-73
2023/02/06 12:55:48;;;;;;;1999.90;999.90;;;;;;;;;;4938488;29;20239;-73
2023/02/06 12:58:38;;;;;;;1999.90;999.90;;;;;;;;;;4941281;29;20297;-73
2023/02/06 13:01:34;;;;;;;1999.90;999.90;;;;;;;;;;4935018;29;20213;-74
2023/02/06 13:04:22;;;;;;;1999.90;999.90;;;;;;;;;;4945669;29;20268;-72
2023/02/06 13:07:09;;;;;;;1999.90;999.90;;;;;;;;;;4934526;29;20707;-72
2023/02/06 13:10:00;;;;;;;1999.90;999.90;;;;;;;;;;4949948;29;20207;-72
2023/02/06 13:12:52;;;;;;;1999.90;999.90;;;;;;;;;;4946668;29;20217;-72
2023/02/06 13:15:39;;;;;;;1999.90;999.90;;;;;;;;;;4944091;29;20210;-72
2023/02/06 13:18:51;;;;;;;1999.90;999.90;;;;;;;;;;4947153;29;20640;-73
2023/02/06 13:21:36;;;;;;;1999.90;999.90;;;;;;;;;;4934039;29;20685;-70
2023/02/06 13:24:21;;;;;;;1999.90;999.90;;;;;;;;;;4933884;29;20221;-73
2023/02/06 13:27:12;;;;;;;1999.90;999.90;;;;;;;;;;4935988;29;20236;-72
2023/02/06 13:30:15;;;;;;;1999.90;999.90;;;;;;;;;;4942825;29;20252;-72
2023/02/06 13:33:09;;;;;;;1999.90;999.90;;;;;;;;;;4933720;29;20548;-72
2023/02/06 13:35:55;;;;;;;1999.90;999.90;;;;;;;;;;4940947;29;20304;-72
2023/02/06 13:38:41;;;;;;;1999.90;999.90;;;;;;;;;;4934299;29;20612;-72
2023/02/06 13:41:30;;;;;;;1999.90;999.90;;;;;;;;;;4950451;29;20217;-72
2023/02/06 13:44:19;;;;;;;1999.90;999.90;;;;;;;;;;4936766;29;20208;-73
2023/02/06 13:47:18;;;;;;;1999.90;999.90;;;;;;;;;;4945033;29;20236;-73
2023/02/06 13:50:30;;;;;;;1999.90;999.90;;;;;;;;;;4927496;29;20213;-73
2023/02/06 13:53:26;;;;;;;1999.90;999.90;;;;;;;;;;4944094;29;20492;-72
2023/02/06 13:56:20;;;;;;;1999.90;999.90;;;;;;;;;;4945605;29;20575;-73
2023/02/06 13:59:10;;;;;;;1999.90;999.90;;;;;;;;;;4940471;29;20717;-72
2023/02/06 14:01:56;;;;;;;1999.90;999.90;;;;;;;;;;4946552;29;20208;-72
2023/02/06 14:04:43;;;;;;;1999.90;999.90;;;;;;;;;;4950408;29;20260;-73
2023/02/06 14:07:45;;;;;;;1999.90;999.90;;;;;;;;;;4947993;29;20590;-73
2023/02/06 14:14:13;;;;;;;1999.90;999.90;;;;;;;;;;4859429;29;20207;-75
2023/02/06 14:17:02;;;;;;;1999.90;999.90;;;;;;;;;;4939804;29;20737;-73
2023/02/06 14:19:50;;;;;;;1999.90;999.90;;;;;;;;;;4934544;29;20578;-74
2023/02/06 14:22:41;;;;;;;1999.90;999.90;;;;;;;;;;4937684;29;20224;-73
2023/02/06 14:25:34;;;;;;;1999.90;999.90;;;;;;;;;;4949247;29;20209;-74
2023/02/06 14:28:24;;;;;;;1999.90;999.90;;;;;;;;;;4933484;29;20598;-74
2023/02/06 14:31:14;;;;;;;1999.90;999.90;;;;;;;;;;4937488;29;20221;-73
2023/02/06 14:34:06;;;;;;;1999.90;999.90;;;;;;;;;;4933111;29;20249;-73
2023/02/06 14:36:59;;;;;;;1999.90;999.90;;;;;;;;;;4939615;29;20227;-75
2023/02/06 14:39:46;;;;;;;1999.90;999.90;;;;;;;;;;4934930;29;20224;-74
2023/02/06 14:42:33;;;;;;;1999.90;999.90;;;;;;;;;;4945659;29;20228;-74
2023/02/06 14:45:24;;;;;;;1999.90;999.90;;;;;;;;;;4933017;29;20583;-74
2023/02/06 14:48:16;;;;;;;1999.90;999.90;;;;;;;;;;4936198;29;20249;-74
2023/02/06 14:51:03;;;;;;;1999.90;999.90;;;;;;;;;;4936088;29;20338;-72
2023/02/06 14:53:51;;;;;;;1999.90;999.90;;;;;;;;;;4949851;29;20273;-74
2023/02/06 14:56:38;;;;;;;1999.90;999.90;;;;;;;;;;4948943;29;20304;-73
2023/02/06 14:59:23;;;;;;;1999.90;999.90;;;;;;;;;;4936391;29;20305;-73
2023/02/06 15:02:13;;;;;;;1999.90;999.90;;;;;;;;;;4938509;29;20213;-74
2023/02/06 15:04:58;;;;;;;1999.90;999.90;;;;;;;;;;4936219;29;20599;-73
2023/02/06 15:07:44;;;;;;;1999.90;999.90;;;;;;;;;;4946811;29;20284;-74
2023/02/06 15:10:30;;;;;;;1999.90;999.90;;;;;;;;;;4943499;29;20209;-75
2023/02/06 15:13:23;;;;;;;1999.90;999.90;;;;;;;;;;4945705;29;20268;-73
2023/02/06 15:16:08;;;;;;;1999.90;999.90;;;;;;;;;;4936481;29;20214;-74
2023/02/06 15:19:09;;;;;;;1999.90;999.90;;;;;;;;;;4940538;29;20212;-74
2023/02/06 15:21:57;;;;;;;1999.90;999.90;;;;;;;;;;4946845;29;20204;-73
2023/02/06 15:24:59;;;;;;;1999.90;999.90;;;;;;;;;;4936005;29;20367;-75
2023/02/06 15:27:44;;;;;;;1999.90;999.90;;;;;;;;;;4945804;29;20256;-72
2023/02/06 15:30:31;;;;;;;1999.90;999.90;;;;;;;;;;4936393;29;21059;-72
2023/02/06 15:33:20;;;;;;;1999.90;999.90;;;;;;;;;;4940086;29;20420;-72
2023/02/06 15:36:05;;;;;;;1999.90;999.90;;;;;;;;;;4943896;29;20970;-73
2023/02/06 15:38:51;;;;;;;1999.90;999.90;;;;;;;;;;4952523;29;20207;-74